<?xml version="1.0" encoding="UTF-8" standalone="no" ?>
<gpx xmlns="http://www.topografix.com/GPX/1/1" xmlns:xsi="http://www.w3.org/2001/XMLSchema-instance" xsi:schemaLocation="http://www.topografix.com/GPX/1/1 http://www.topografix.com/GPX/1/1/gpx.xsd" version="1.1" creator="VisuGPX - https://www.visugpx.com">
  <metadata>
    <name>20 09 2025 Huillé 66 km</name>
  </metadata>
  <trk>
    <name><![CDATA[3 - Huillé 66 km]]></name>
    <extensions>
      <line xmlns="http://www.topografix.com/GPX/gpx_style/0/2">
        <color>2a5b32</color>
        <opacity>1</opacity>
        <width>8</width>
          <extensions>
            <sens>1</sens>
          </extensions>
      </line>
    </extensions>
    <trkseg>
      <trkpt lat="47.70269" lon="-0.0486">
        <ele>32</ele>
        <time>2025-06-17T17:03:42Z</time>
        <extensions>
          <visugpx:TrkExtension xmlns:visugpx="https://www.visugpx.com/editgpx/">
            <visugpx:node>1</visugpx:node>
            </visugpx:TrkExtension>
        </extensions>
      </trkpt>
      <trkpt lat="47.7011" lon="-0.05152">
        <ele>33</ele>
        <time>2025-06-17T17:04:27Z</time>
      </trkpt>
      <trkpt lat="47.70266" lon="-0.05268">
        <ele>32</ele>
        <time>2025-06-17T17:04:58Z</time>
      </trkpt>
      <trkpt lat="47.70118" lon="-0.05543">
        <ele>34</ele>
        <time>2025-06-17T17:05:40Z</time>
      </trkpt>
      <trkpt lat="47.6974" lon="-0.06212">
        <ele>31</ele>
        <time>2025-06-17T17:07:25Z</time>
      </trkpt>
      <trkpt lat="47.69679" lon="-0.06319">
        <ele>31</ele>
        <time>2025-06-17T17:07:42Z</time>
      </trkpt>
      <trkpt lat="47.69743" lon="-0.07002">
        <ele>31</ele>
        <time>2025-06-17T17:09:04Z</time>
      </trkpt>
      <trkpt lat="47.69145" lon="-0.07221">
        <ele>29</ele>
        <time>2025-06-17T17:10:54Z</time>
      </trkpt>
      <trkpt lat="47.69174" lon="-0.07568">
        <ele>30</ele>
        <time>2025-06-17T17:11:36Z</time>
      </trkpt>
      <trkpt lat="47.68599" lon="-0.07547">
        <ele>30</ele>
        <time>2025-06-17T17:13:18Z</time>
      </trkpt>
      <trkpt lat="47.68507" lon="-0.08143">
        <ele>27</ele>
        <time>2025-06-17T17:14:31Z</time>
      </trkpt>
      <trkpt lat="47.6831" lon="-0.08396">
        <ele>31</ele>
        <time>2025-06-17T17:15:18Z</time>
      </trkpt>
      <trkpt lat="47.68128" lon="-0.08731">
        <ele>30</ele>
        <time>2025-06-17T17:16:09Z</time>
      </trkpt>
      <trkpt lat="47.67932" lon="-0.08967">
        <ele>34</ele>
        <time>2025-06-17T17:16:54Z</time>
      </trkpt>
      <trkpt lat="47.67834" lon="-0.09051">
        <ele>30.3</ele>
      </trkpt>
      <trkpt lat="47.67579" lon="-0.09454">
        <ele>38</ele>
        <time>2025-06-17T17:18:20Z</time>
      </trkpt>
      <trkpt lat="47.67464" lon="-0.09626">
        <ele>35</ele>
        <time>2025-06-17T17:18:49Z</time>
      </trkpt>
      <trkpt lat="47.6729" lon="-0.09652">
        <ele>33</ele>
        <time>2025-06-17T17:19:20Z</time>
      </trkpt>
      <trkpt lat="47.67196" lon="-0.09675">
        <ele>32</ele>
      </trkpt>
      <trkpt lat="47.67151" lon="-0.09634">
        <ele>36</ele>
        <time>2025-06-17T17:19:45Z</time>
      </trkpt>
      <trkpt lat="47.67034" lon="-0.09514">
        <ele>40.2</ele>
      </trkpt>
      <trkpt lat="47.66961" lon="-0.09497">
        <ele>47</ele>
        <time>2025-06-17T17:20:22Z</time>
      </trkpt>
      <trkpt lat="47.66683" lon="-0.09351">
        <ele>46</ele>
        <time>2025-06-17T17:21:15Z</time>
      </trkpt>
      <trkpt lat="47.66388" lon="-0.09437">
        <ele>35</ele>
        <time>2025-06-17T17:22:08Z</time>
      </trkpt>
      <trkpt lat="47.66175" lon="-0.09459">
        <ele>33.9</ele>
      </trkpt>
      <trkpt lat="47.65955" lon="-0.09386">
        <ele>34</ele>
        <time>2025-06-17T17:23:26Z</time>
      </trkpt>
      <trkpt lat="47.65238" lon="-0.09214">
        <ele>37</ele>
        <time>2025-06-17T17:25:35Z</time>
      </trkpt>
      <trkpt lat="47.64827" lon="-0.0942">
        <ele>36</ele>
        <time>2025-06-17T17:26:52Z</time>
      </trkpt>
      <trkpt lat="47.64577" lon="-0.0953">
        <ele>39.1</ele>
        <time>2025-06-17T17:27:45Z</time>
      </trkpt>
      <trkpt lat="47.64441" lon="-0.0975">
        <ele>41.1</ele>
        <time>2025-06-17T17:28:17Z</time>
      </trkpt>
      <trkpt lat="47.64134" lon="-0.09907">
        <ele>44.2</ele>
        <time>2025-06-17T17:29:34Z</time>
      </trkpt>
      <trkpt lat="47.63891" lon="-0.10124">
        <ele>45</ele>
        <time>2025-06-17T17:30:08Z</time>
      </trkpt>
      <trkpt lat="47.63787" lon="-0.10184">
        <ele>49</ele>
        <time>2025-06-17T17:30:28Z</time>
      </trkpt>
      <trkpt lat="47.6373" lon="-0.10312">
        <ele>46</ele>
      </trkpt>
      <trkpt lat="47.63578" lon="-0.10544">
        <ele>48</ele>
        <time>2025-06-17T17:31:25Z</time>
      </trkpt>
      <trkpt lat="47.63328" lon="-0.10674">
        <ele>44.1</ele>
      </trkpt>
      <trkpt lat="47.63238" lon="-0.10759">
        <ele>43</ele>
      </trkpt>
      <trkpt lat="47.63054" lon="-0.10803">
        <ele>44</ele>
      </trkpt>
      <trkpt lat="47.62954" lon="-0.10853">
        <ele>44</ele>
        <time>2025-06-17T17:33:22Z</time>
      </trkpt>
      <trkpt lat="47.62916" lon="-0.10868">
        <ele>43</ele>
      </trkpt>
      <trkpt lat="47.62751" lon="-0.10853">
        <ele>39</ele>
        <time>2025-06-17T17:33:58Z</time>
      </trkpt>
      <trkpt lat="47.62682" lon="-0.10857">
        <ele>38.2</ele>
      </trkpt>
      <trkpt lat="47.62624" lon="-0.10828">
        <ele>40</ele>
        <time>2025-06-17T17:34:21Z</time>
      </trkpt>
      <trkpt lat="47.62573" lon="-0.10774">
        <ele>39.9</ele>
      </trkpt>
      <trkpt lat="47.62526" lon="-0.10836">
        <ele>41</ele>
        <time>2025-06-17T17:34:38Z</time>
      </trkpt>
      <trkpt lat="47.62506" lon="-0.10912">
        <ele>39.2</ele>
      </trkpt>
      <trkpt lat="47.62508" lon="-0.10999">
        <ele>40</ele>
        <time>2025-06-17T17:34:58Z</time>
      </trkpt>
      <trkpt lat="47.62586" lon="-0.1121">
        <ele>39</ele>
      </trkpt>
      <trkpt lat="47.62641" lon="-0.1136">
        <ele>45</ele>
        <time>2025-06-17T17:35:48Z</time>
      </trkpt>
      <trkpt lat="47.62659" lon="-0.116">
        <ele>44</ele>
        <time>2025-06-17T17:36:17Z</time>
      </trkpt>
      <trkpt lat="47.62607" lon="-0.11866">
        <ele>44</ele>
        <time>2025-06-17T17:36:50Z</time>
      </trkpt>
      <trkpt lat="47.62485" lon="-0.12115">
        <ele>41</ele>
        <time>2025-06-17T17:37:27Z</time>
      </trkpt>
      <trkpt lat="47.62526" lon="-0.13154">
        <ele>47</ele>
        <time>2025-06-17T17:39:31Z</time>
      </trkpt>
      <trkpt lat="47.62561" lon="-0.1329">
        <ele>47.6</ele>
      </trkpt>
      <trkpt lat="47.62589" lon="-0.13471">
        <ele>44</ele>
        <time>2025-06-17T17:40:11Z</time>
      </trkpt>
      <trkpt lat="47.62711" lon="-0.13763">
        <ele>39</ele>
        <time>2025-06-17T17:40:52Z</time>
      </trkpt>
      <trkpt lat="47.62751" lon="-0.14244">
        <ele>34</ele>
        <time>2025-06-17T17:41:50Z</time>
      </trkpt>
      <trkpt lat="47.62786" lon="-0.1475">
        <ele>33</ele>
        <time>2025-06-17T17:42:51Z</time>
      </trkpt>
      <trkpt lat="47.62786" lon="-0.1493">
        <ele>34</ele>
        <time>2025-06-17T17:43:13Z</time>
      </trkpt>
      <trkpt lat="47.62604" lon="-0.14991">
        <ele>33.1</ele>
        <time>2025-06-17T17:43:45Z</time>
      </trkpt>
      <trkpt lat="47.62656" lon="-0.15105">
        <ele>32</ele>
      </trkpt>
      <trkpt lat="47.62664" lon="-0.15213">
        <ele>33</ele>
        <time>2025-06-17T17:44:16Z</time>
      </trkpt>
      <trkpt lat="47.62663" lon="-0.15284">
        <ele>33</ele>
      </trkpt>
      <trkpt lat="47.62636" lon="-0.15368">
        <ele>34</ele>
        <time>2025-06-17T17:44:35Z</time>
      </trkpt>
      <trkpt lat="47.62555" lon="-0.15431">
        <ele>34</ele>
      </trkpt>
      <trkpt lat="47.62531" lon="-0.15488">
        <ele>34</ele>
        <time>2025-06-17T17:44:59Z</time>
      </trkpt>
      <trkpt lat="47.62507" lon="-0.15598">
        <ele>35.6</ele>
      </trkpt>
      <trkpt lat="47.6259" lon="-0.16005">
        <ele>38</ele>
      </trkpt>
      <trkpt lat="47.62625" lon="-0.16231">
        <ele>36.6</ele>
      </trkpt>
      <trkpt lat="47.62612" lon="-0.16252">
        <ele>36</ele>
        <time>2025-06-17T17:46:31Z</time>
      </trkpt>
      <trkpt lat="47.62604" lon="-0.1641">
        <ele>38</ele>
      </trkpt>
      <trkpt lat="47.6267" lon="-0.1663">
        <ele>39</ele>
        <time>2025-06-17T17:47:18Z</time>
      </trkpt>
      <trkpt lat="47.62705" lon="-0.16733">
        <ele>40.9</ele>
      </trkpt>
      <trkpt lat="47.6278" lon="-0.1711">
        <ele>40</ele>
        <time>2025-06-17T17:48:19Z</time>
      </trkpt>
      <trkpt lat="47.62799" lon="-0.17249">
        <ele>41.5</ele>
        <time>2025-06-17T17:48:36Z</time>
      </trkpt>
      <trkpt lat="47.6278" lon="-0.17419">
        <ele>42</ele>
        <time>2025-06-17T17:48:58Z</time>
      </trkpt>
      <trkpt lat="47.62867" lon="-0.1772">
        <ele>40</ele>
        <time>2025-06-17T17:49:37Z</time>
      </trkpt>
      <trkpt lat="47.62859" lon="-0.17882">
        <ele>42.4</ele>
      </trkpt>
      <trkpt lat="47.62838" lon="-0.17951">
        <ele>42</ele>
        <time>2025-06-17T17:50:05Z</time>
      </trkpt>
      <trkpt lat="47.62728" lon="-0.18355">
        <ele>42</ele>
        <time>2025-06-17T17:50:57Z</time>
      </trkpt>
      <trkpt lat="47.62583" lon="-0.18458">
        <ele>45</ele>
        <time>2025-06-17T17:51:26Z</time>
      </trkpt>
      <trkpt lat="47.62502" lon="-0.1869">
        <ele>45</ele>
        <time>2025-06-17T17:51:57Z</time>
      </trkpt>
      <trkpt lat="47.62381" lon="-0.18904">
        <ele>45.7</ele>
        <time>2025-06-17T17:52:46Z</time>
      </trkpt>
      <trkpt lat="47.6232" lon="-0.19009">
        <ele>46.5</ele>
      </trkpt>
      <trkpt lat="47.62341" lon="-0.19222">
        <ele>44</ele>
        <time>2025-06-17T17:53:11Z</time>
      </trkpt>
      <trkpt lat="47.6229" lon="-0.19378">
        <ele>42.8</ele>
      </trkpt>
      <trkpt lat="47.62213" lon="-0.19522">
        <ele>45</ele>
        <time>2025-06-17T17:53:53Z</time>
      </trkpt>
      <trkpt lat="47.61993" lon="-0.20089">
        <ele>49.7</ele>
      </trkpt>
      <trkpt lat="47.61979" lon="-0.20112">
        <ele>50.5</ele>
        <time>2025-06-17T17:55:12Z</time>
      </trkpt>
      <trkpt lat="47.61991" lon="-0.20206">
        <ele>47.2</ele>
      </trkpt>
      <trkpt lat="47.61898" lon="-0.20408">
        <ele>44.9</ele>
      </trkpt>
      <trkpt lat="47.61889" lon="-0.20443">
        <ele>44.1</ele>
        <time>2025-06-17T17:56:03Z</time>
      </trkpt>
      <trkpt lat="47.61889" lon="-0.2054">
        <ele>43.6</ele>
      </trkpt>
      <trkpt lat="47.61874" lon="-0.20654">
        <ele>40.8</ele>
      </trkpt>
      <trkpt lat="47.61804" lon="-0.20719">
        <ele>43.3</ele>
      </trkpt>
      <trkpt lat="47.61739" lon="-0.20883">
        <ele>42.6</ele>
        <time>2025-06-17T17:57:01Z</time>
      </trkpt>
      <trkpt lat="47.61635" lon="-0.20931">
        <ele>43.5</ele>
      </trkpt>
      <trkpt lat="47.61547" lon="-0.20937">
        <ele>43.3</ele>
      </trkpt>
      <trkpt lat="47.61461" lon="-0.20917">
        <ele>43</ele>
        <time>2025-06-17T17:57:51Z</time>
      </trkpt>
      <trkpt lat="47.61442" lon="-0.20909">
        <ele>43.6</ele>
      </trkpt>
      <trkpt lat="47.61172" lon="-0.21157">
        <ele>34</ele>
        <time>2025-06-17T17:58:49Z</time>
      </trkpt>
      <trkpt lat="47.61146" lon="-0.2117">
        <ele>36</ele>
      </trkpt>
      <trkpt lat="47.60805" lon="-0.21198">
        <ele>36.9</ele>
      </trkpt>
      <trkpt lat="47.60674" lon="-0.21185">
        <ele>36.1</ele>
      </trkpt>
      <trkpt lat="47.60517" lon="-0.21224">
        <ele>36</ele>
      </trkpt>
      <trkpt lat="47.60087" lon="-0.2154">
        <ele>36</ele>
        <time>2025-06-17T18:02:08Z</time>
      </trkpt>
      <trkpt lat="47.59829" lon="-0.21758">
        <ele>45</ele>
        <time>2025-06-17T18:03:01Z</time>
      </trkpt>
      <trkpt lat="47.59749" lon="-0.21807">
        <ele>38</ele>
      </trkpt>
      <trkpt lat="47.59104" lon="-0.21804">
        <ele>42</ele>
        <time>2025-06-17T18:05:09Z</time>
      </trkpt>
      <trkpt lat="47.59199" lon="-0.23007">
        <ele>43.2</ele>
        <time>2025-06-17T18:07:44Z</time>
      </trkpt>
      <trkpt lat="47.58943" lon="-0.23374">
        <ele>47</ele>
      </trkpt>
      <trkpt lat="47.58868" lon="-0.23526">
        <ele>50</ele>
        <time>2025-06-17T18:09:08Z</time>
      </trkpt>
      <trkpt lat="47.58729" lon="-0.24041">
        <ele>49</ele>
        <time>2025-06-17T18:10:14Z</time>
      </trkpt>
      <trkpt lat="47.58648" lon="-0.24602">
        <ele>49.8</ele>
        <time>2025-06-17T18:11:27Z</time>
      </trkpt>
      <trkpt lat="47.58626" lon="-0.24797">
        <ele>49.1</ele>
      </trkpt>
      <trkpt lat="47.58604" lon="-0.24882">
        <ele>49</ele>
      </trkpt>
      <trkpt lat="47.58538" lon="-0.24998">
        <ele>47.4</ele>
        <time>2025-06-17T18:12:16Z</time>
      </trkpt>
      <trkpt lat="47.58363" lon="-0.25171">
        <ele>45.8</ele>
        <time>2025-06-17T18:12:49Z</time>
      </trkpt>
      <trkpt lat="47.58123" lon="-0.2541">
        <ele>48.1</ele>
      </trkpt>
      <trkpt lat="47.57968" lon="-0.25603">
        <ele>51.1</ele>
        <time>2025-06-17T18:14:23Z</time>
      </trkpt>
      <trkpt lat="47.57995" lon="-0.25726">
        <ele>51.2</ele>
      </trkpt>
      <trkpt lat="47.57982" lon="-0.25943">
        <ele>51.7</ele>
      </trkpt>
      <trkpt lat="47.58011" lon="-0.26158">
        <ele>50.3</ele>
      </trkpt>
      <trkpt lat="47.58014" lon="-0.26362">
        <ele>53.5</ele>
      </trkpt>
      <trkpt lat="47.5808" lon="-0.2663">
        <ele>54.9</ele>
      </trkpt>
      <trkpt lat="47.58119" lon="-0.2696">
        <ele>52.7</ele>
        <time>2025-06-17T18:17:03Z</time>
      </trkpt>
      <trkpt lat="47.58023" lon="-0.27102">
        <ele>51.2</ele>
      </trkpt>
      <trkpt lat="47.58017" lon="-0.27243">
        <ele>50.4</ele>
        <time>2025-06-17T18:17:44Z</time>
      </trkpt>
      <trkpt lat="47.5811" lon="-0.27949">
        <ele>58</ele>
      </trkpt>
      <trkpt lat="47.58151" lon="-0.28659">
        <ele>58</ele>
        <time>2025-06-17T18:20:37Z</time>
      </trkpt>
      <trkpt lat="47.58232" lon="-0.29946">
        <ele>60</ele>
        <time>2025-06-17T18:23:12Z</time>
      </trkpt>
      <trkpt lat="47.58244" lon="-0.29994">
        <ele>53.2</ele>
      </trkpt>
      <trkpt lat="47.58127" lon="-0.30393">
        <ele>49</ele>
        <time>2025-06-17T18:24:09Z</time>
      </trkpt>
      <trkpt lat="47.58109" lon="-0.30563">
        <ele>47.7</ele>
      </trkpt>
      <trkpt lat="47.58109" lon="-0.30794">
        <ele>45.6</ele>
      </trkpt>
      <trkpt lat="47.58" lon="-0.31096">
        <ele>46</ele>
        <time>2025-06-17T18:25:36Z</time>
      </trkpt>
      <trkpt lat="47.57956" lon="-0.31326">
        <ele>48.3</ele>
      </trkpt>
      <trkpt lat="47.57955" lon="-0.31483">
        <ele>47.6</ele>
      </trkpt>
      <trkpt lat="47.57987" lon="-0.31602">
        <ele>47</ele>
      </trkpt>
      <trkpt lat="47.58" lon="-0.31611">
        <ele>44</ele>
        <time>2025-06-17T18:26:38Z</time>
      </trkpt>
      <trkpt lat="47.57991" lon="-0.31747">
        <ele>44.8</ele>
      </trkpt>
      <trkpt lat="47.57986" lon="-0.31786">
        <ele>44.1</ele>
      </trkpt>
      <trkpt lat="47.579" lon="-0.31903">
        <ele>40.8</ele>
        <time>2025-06-17T18:27:21Z</time>
      </trkpt>
      <trkpt lat="47.57904" lon="-0.32023">
        <ele>41.5</ele>
      </trkpt>
      <trkpt lat="47.5797" lon="-0.32466">
        <ele>40.1</ele>
        <time>2025-06-17T18:28:43Z</time>
      </trkpt>
      <trkpt lat="47.58013" lon="-0.32502">
        <ele>38.5</ele>
        <time>2025-06-17T18:28:59Z</time>
      </trkpt>
      <trkpt lat="47.58134" lon="-0.32457">
        <ele>35.2</ele>
      </trkpt>
      <trkpt lat="47.58237" lon="-0.32465">
        <ele>37</ele>
        <time>2025-06-17T18:29:37Z</time>
      </trkpt>
      <trkpt lat="47.58487" lon="-0.32352">
        <ele>47</ele>
        <time>2025-06-17T18:30:21Z</time>
      </trkpt>
      <trkpt lat="47.58563" lon="-0.32278">
        <ele>48.7</ele>
      </trkpt>
      <trkpt lat="47.58619" lon="-0.32199">
        <ele>48</ele>
        <time>2025-06-17T18:30:52Z</time>
      </trkpt>
      <trkpt lat="47.58718" lon="-0.31968">
        <ele>45</ele>
        <time>2025-06-17T18:31:25Z</time>
      </trkpt>
      <trkpt lat="47.58783" lon="-0.31833">
        <ele>45.6</ele>
      </trkpt>
      <trkpt lat="47.58944" lon="-0.31667">
        <ele>52</ele>
        <time>2025-06-17T18:32:19Z</time>
      </trkpt>
      <trkpt lat="47.59154" lon="-0.31516">
        <ele>49.1</ele>
      </trkpt>
      <trkpt lat="47.5936" lon="-0.31328">
        <ele>47</ele>
        <time>2025-06-17T18:33:45Z</time>
      </trkpt>
      <trkpt lat="47.59422" lon="-0.31305">
        <ele>47</ele>
      </trkpt>
      <trkpt lat="47.59592" lon="-0.31152">
        <ele>49</ele>
        <time>2025-06-17T18:34:30Z</time>
      </trkpt>
      <trkpt lat="47.59812" lon="-0.31032">
        <ele>42</ele>
        <time>2025-06-17T18:35:12Z</time>
      </trkpt>
      <trkpt lat="47.59892" lon="-0.30873">
        <ele>48.5</ele>
        <time>2025-06-17T18:35:37Z</time>
      </trkpt>
      <trkpt lat="47.59954" lon="-0.30765">
        <ele>51.6</ele>
        <time>2025-06-17T18:35:55Z</time>
      </trkpt>
      <trkpt lat="47.59985" lon="-0.30594">
        <ele>49</ele>
        <time>2025-06-17T18:36:14Z</time>
      </trkpt>
      <trkpt lat="47.60143" lon="-0.30619">
        <ele>54.2</ele>
      </trkpt>
      <trkpt lat="47.60363" lon="-0.30695">
        <ele>59.1</ele>
        <time>2025-06-17T18:37:23Z</time>
      </trkpt>
      <trkpt lat="47.60471" lon="-0.30703">
        <ele>63.9</ele>
      </trkpt>
      <trkpt lat="47.60593" lon="-0.30732">
        <ele>78</ele>
        <time>2025-06-17T18:38:03Z</time>
      </trkpt>
      <trkpt lat="47.60642" lon="-0.30733">
        <ele>73.5</ele>
      </trkpt>
      <trkpt lat="47.60765" lon="-0.30851">
        <ele>76.4</ele>
      </trkpt>
      <trkpt lat="47.60819" lon="-0.30878">
        <ele>77</ele>
        <time>2025-06-17T18:38:47Z</time>
      </trkpt>
      <trkpt lat="47.60969" lon="-0.30921">
        <ele>82</ele>
        <time>2025-06-17T18:39:14Z</time>
      </trkpt>
      <trkpt lat="47.60999" lon="-0.30913">
        <ele>83.1</ele>
      </trkpt>
      <trkpt lat="47.61003" lon="-0.30869">
        <ele>84.1</ele>
      </trkpt>
      <trkpt lat="47.61062" lon="-0.30848">
        <ele>83.2</ele>
        <time>2025-06-17T18:39:33Z</time>
      </trkpt>
      <trkpt lat="47.61086" lon="-0.30833">
        <ele>81.8</ele>
      </trkpt>
      <trkpt lat="47.61109" lon="-0.30791">
        <ele>80.2</ele>
      </trkpt>
      <trkpt lat="47.61108" lon="-0.30749">
        <ele>79.2</ele>
        <time>2025-06-17T18:39:49Z</time>
      </trkpt>
      <trkpt lat="47.61207" lon="-0.30737">
        <ele>68.2</ele>
      </trkpt>
      <trkpt lat="47.6122" lon="-0.30703">
        <ele>65.6</ele>
      </trkpt>
      <trkpt lat="47.61332" lon="-0.30664">
        <ele>53</ele>
      </trkpt>
      <trkpt lat="47.61409" lon="-0.3062">
        <ele>44</ele>
        <time>2025-06-17T18:40:45Z</time>
      </trkpt>
      <trkpt lat="47.61529" lon="-0.30595">
        <ele>39</ele>
      </trkpt>
      <trkpt lat="47.6169" lon="-0.30601">
        <ele>37</ele>
      </trkpt>
      <trkpt lat="47.61807" lon="-0.30636">
        <ele>36</ele>
      </trkpt>
      <trkpt lat="47.61912" lon="-0.30716">
        <ele>36</ele>
        <time>2025-06-17T18:42:19Z</time>
      </trkpt>
      <trkpt lat="47.61988" lon="-0.30788">
        <ele>35.9</ele>
      </trkpt>
      <trkpt lat="47.62249" lon="-0.30881">
        <ele>40</ele>
        <time>2025-06-17T18:43:22Z</time>
      </trkpt>
      <trkpt lat="47.62502" lon="-0.30453">
        <ele>38.3</ele>
      </trkpt>
      <trkpt lat="47.62585" lon="-0.30235">
        <ele>36</ele>
      </trkpt>
      <trkpt lat="47.62597" lon="-0.30107">
        <ele>31</ele>
      </trkpt>
      <trkpt lat="47.62632" lon="-0.30041">
        <ele>31.8</ele>
        <time>2025-06-17T18:45:20Z</time>
      </trkpt>
      <trkpt lat="47.62742" lon="-0.29677">
        <ele>38.7</ele>
      </trkpt>
      <trkpt lat="47.62819" lon="-0.2931">
        <ele>40.5</ele>
        <time>2025-06-17T18:46:56Z</time>
      </trkpt>
      <trkpt lat="47.63035" lon="-0.2953">
        <ele>36</ele>
        <time>2025-06-17T18:47:43Z</time>
      </trkpt>
      <trkpt lat="47.63249" lon="-0.29573">
        <ele>42</ele>
        <time>2025-06-17T18:48:22Z</time>
      </trkpt>
      <trkpt lat="47.63422" lon="-0.29548">
        <ele>46.6</ele>
      </trkpt>
      <trkpt lat="47.63515" lon="-0.29504">
        <ele>51</ele>
        <time>2025-06-17T18:49:10Z</time>
      </trkpt>
      <trkpt lat="47.63603" lon="-0.29518">
        <ele>51.7</ele>
      </trkpt>
      <trkpt lat="47.63641" lon="-0.29506">
        <ele>53</ele>
      </trkpt>
      <trkpt lat="47.63668" lon="-0.29477">
        <ele>53</ele>
      </trkpt>
      <trkpt lat="47.63675" lon="-0.29493">
        <ele>52.9</ele>
      </trkpt>
      <trkpt lat="47.63699" lon="-0.29702">
        <ele>50.7</ele>
        <time>2025-06-17T18:50:07Z</time>
      </trkpt>
      <trkpt lat="47.63821" lon="-0.30036">
        <ele>32</ele>
        <time>2025-06-17T18:50:51Z</time>
      </trkpt>
      <trkpt lat="47.63988" lon="-0.3001">
        <ele>27.1</ele>
        <time>2025-06-17T18:51:24Z</time>
      </trkpt>
      <trkpt lat="47.64009" lon="-0.30015">
        <ele>25.6</ele>
      </trkpt>
      <trkpt lat="47.64168" lon="-0.30122">
        <ele>22</ele>
        <time>2025-06-17T18:51:56Z</time>
      </trkpt>
      <trkpt lat="47.647" lon="-0.30509">
        <ele>44</ele>
        <time>2025-06-17T18:53:42Z</time>
      </trkpt>
      <trkpt lat="47.64717" lon="-0.30509">
        <ele>44.3</ele>
      </trkpt>
      <trkpt lat="47.64728" lon="-0.30498">
        <ele>45.3</ele>
      </trkpt>
      <trkpt lat="47.6481" lon="-0.30543">
        <ele>47</ele>
        <time>2025-06-17T18:54:02Z</time>
      </trkpt>
      <trkpt lat="47.64808" lon="-0.30472">
        <ele>49.1</ele>
      </trkpt>
      <trkpt lat="47.64802" lon="-0.30415">
        <ele>49.9</ele>
      </trkpt>
      <trkpt lat="47.64814" lon="-0.30353">
        <ele>49.3</ele>
      </trkpt>
      <trkpt lat="47.6484" lon="-0.30285">
        <ele>49.5</ele>
        <time>2025-06-17T18:54:33Z</time>
      </trkpt>
      <trkpt lat="47.64917" lon="-0.30203">
        <ele>50.3</ele>
      </trkpt>
      <trkpt lat="47.64975" lon="-0.30134">
        <ele>52.1</ele>
      </trkpt>
      <trkpt lat="47.65005" lon="-0.30078">
        <ele>52.4</ele>
      </trkpt>
      <trkpt lat="47.65171" lon="-0.29746">
        <ele>46.8</ele>
        <time>2025-06-17T18:55:59Z</time>
      </trkpt>
      <trkpt lat="47.6527" lon="-0.29572">
        <ele>43.6</ele>
      </trkpt>
      <trkpt lat="47.65319" lon="-0.2941">
        <ele>58</ele>
        <time>2025-06-17T18:56:49Z</time>
      </trkpt>
      <trkpt lat="47.65335" lon="-0.29339">
        <ele>56.1</ele>
      </trkpt>
      <trkpt lat="47.65422" lon="-0.29146">
        <ele>60.8</ele>
      </trkpt>
      <trkpt lat="47.65731" lon="-0.28539">
        <ele>59.4</ele>
        <time>2025-06-17T18:58:56Z</time>
      </trkpt>
      <trkpt lat="47.65741" lon="-0.28491">
        <ele>59.2</ele>
      </trkpt>
      <trkpt lat="47.65752" lon="-0.28235">
        <ele>60.7</ele>
      </trkpt>
      <trkpt lat="47.6577" lon="-0.2813">
        <ele>62.1</ele>
      </trkpt>
      <trkpt lat="47.65774" lon="-0.2811">
        <ele>62.6</ele>
        <time>2025-06-17T18:59:48Z</time>
      </trkpt>
      <trkpt lat="47.65787" lon="-0.28032">
        <ele>61.7</ele>
      </trkpt>
      <trkpt lat="47.65854" lon="-0.2777">
        <ele>59.2</ele>
        <time>2025-06-17T19:00:30Z</time>
      </trkpt>
      <trkpt lat="47.65887" lon="-0.27717">
        <ele>57.7</ele>
      </trkpt>
      <trkpt lat="47.65989" lon="-0.27611">
        <ele>47.8</ele>
      </trkpt>
      <trkpt lat="47.66018" lon="-0.27565">
        <ele>49</ele>
        <time>2025-06-17T19:01:11Z</time>
      </trkpt>
      <trkpt lat="47.66087" lon="-0.27464">
        <ele>55.9</ele>
      </trkpt>
      <trkpt lat="47.66169" lon="-0.27326">
        <ele>61.1</ele>
      </trkpt>
      <trkpt lat="47.66229" lon="-0.2717">
        <ele>61</ele>
        <time>2025-06-17T19:02:12Z</time>
      </trkpt>
      <trkpt lat="47.66242" lon="-0.27116">
        <ele>60</ele>
      </trkpt>
      <trkpt lat="47.66274" lon="-0.2705">
        <ele>58.8</ele>
      </trkpt>
      <trkpt lat="47.66344" lon="-0.26968">
        <ele>56.5</ele>
      </trkpt>
      <trkpt lat="47.66374" lon="-0.26923">
        <ele>55.8</ele>
        <time>2025-06-17T19:02:49Z</time>
      </trkpt>
      <trkpt lat="47.6639" lon="-0.26857">
        <ele>56.6</ele>
      </trkpt>
      <trkpt lat="47.66403" lon="-0.26637">
        <ele>51.5</ele>
        <time>2025-06-17T19:03:25Z</time>
      </trkpt>
      <trkpt lat="47.66407" lon="-0.26536">
        <ele>54.9</ele>
      </trkpt>
      <trkpt lat="47.66418" lon="-0.26418">
        <ele>57</ele>
      </trkpt>
      <trkpt lat="47.66478" lon="-0.26296">
        <ele>56.9</ele>
        <time>2025-06-17T19:04:10Z</time>
      </trkpt>
      <trkpt lat="47.66495" lon="-0.26262">
        <ele>56.3</ele>
      </trkpt>
      <trkpt lat="47.66568" lon="-0.26131">
        <ele>52.5</ele>
      </trkpt>
      <trkpt lat="47.66677" lon="-0.25979">
        <ele>46.4</ele>
        <time>2025-06-17T19:05:03Z</time>
      </trkpt>
      <trkpt lat="47.66716" lon="-0.25956">
        <ele>44.1</ele>
      </trkpt>
      <trkpt lat="47.66748" lon="-0.25903">
        <ele>41.6</ele>
      </trkpt>
      <trkpt lat="47.668" lon="-0.25847">
        <ele>42.7</ele>
      </trkpt>
      <trkpt lat="47.66907" lon="-0.25668">
        <ele>44</ele>
        <time>2025-06-17T19:05:57Z</time>
      </trkpt>
      <trkpt lat="47.66925" lon="-0.2558">
        <ele>43.6</ele>
      </trkpt>
      <trkpt lat="47.66927" lon="-0.25483">
        <ele>44.7</ele>
        <time>2025-06-17T19:06:20Z</time>
      </trkpt>
      <trkpt lat="47.66931" lon="-0.25447">
        <ele>44.6</ele>
      </trkpt>
      <trkpt lat="47.66938" lon="-0.25399">
        <ele>44.9</ele>
      </trkpt>
      <trkpt lat="47.66952" lon="-0.25382">
        <ele>45.5</ele>
      </trkpt>
      <trkpt lat="47.66951" lon="-0.25307">
        <ele>45</ele>
      </trkpt>
      <trkpt lat="47.66968" lon="-0.25245">
        <ele>45.1</ele>
        <time>2025-06-17T19:06:49Z</time>
      </trkpt>
      <trkpt lat="47.66982" lon="-0.25193">
        <ele>44.7</ele>
      </trkpt>
      <trkpt lat="47.67047" lon="-0.24981">
        <ele>43</ele>
        <time>2025-06-17T19:07:24Z</time>
      </trkpt>
      <trkpt lat="47.67151" lon="-0.24713">
        <ele>34.5</ele>
      </trkpt>
      <trkpt lat="47.67151" lon="-0.24689">
        <ele>39</ele>
        <time>2025-06-17T19:08:04Z</time>
      </trkpt>
      <trkpt lat="47.67146" lon="-0.24661">
        <ele>34.9</ele>
      </trkpt>
      <trkpt lat="47.67151" lon="-0.24555">
        <ele>32.4</ele>
        <time>2025-06-17T19:08:19Z</time>
      </trkpt>
      <trkpt lat="47.6715" lon="-0.24514">
        <ele>30.7</ele>
      </trkpt>
      <trkpt lat="47.67146" lon="-0.24501">
        <ele>30</ele>
      </trkpt>
      <trkpt lat="47.67127" lon="-0.24415">
        <ele>27</ele>
        <time>2025-06-17T19:08:38Z</time>
      </trkpt>
      <trkpt lat="47.67121" lon="-0.24387">
        <ele>26.6</ele>
      </trkpt>
      <trkpt lat="47.67062" lon="-0.2433">
        <ele>25.8</ele>
        <time>2025-06-17T19:08:56Z</time>
      </trkpt>
      <trkpt lat="47.67018" lon="-0.24382">
        <ele>25.4</ele>
      </trkpt>
      <trkpt lat="47.66968" lon="-0.24455">
        <ele>26</ele>
        <time>2025-06-17T19:09:21Z</time>
      </trkpt>
      <trkpt lat="47.66556" lon="-0.2426">
        <ele>28</ele>
        <time>2025-06-17T19:10:41Z</time>
      </trkpt>
      <trkpt lat="47.65874" lon="-0.23565">
        <ele>31</ele>
        <time>2025-06-17T19:13:09Z</time>
      </trkpt>
      <trkpt lat="47.65637" lon="-0.23307">
        <ele>32</ele>
        <time>2025-06-17T19:14:01Z</time>
      </trkpt>
      <trkpt lat="47.65573" lon="-0.23179">
        <ele>33</ele>
        <time>2025-06-17T19:14:20Z</time>
      </trkpt>
      <trkpt lat="47.65648" lon="-0.22947">
        <ele>32</ele>
        <time>2025-06-17T19:14:51Z</time>
      </trkpt>
      <trkpt lat="47.65742" lon="-0.22653">
        <ele>36.7</ele>
        <time>2025-06-17T19:15:30Z</time>
      </trkpt>
      <trkpt lat="47.65706" lon="-0.22437">
        <ele>36.8</ele>
        <time>2025-06-17T19:15:57Z</time>
      </trkpt>
      <trkpt lat="47.65614" lon="-0.2214">
        <ele>39</ele>
        <time>2025-06-17T19:16:37Z</time>
      </trkpt>
      <trkpt lat="47.65556" lon="-0.21934">
        <ele>35</ele>
        <time>2025-06-17T19:17:04Z</time>
      </trkpt>
      <trkpt lat="47.65631" lon="-0.21685">
        <ele>34</ele>
        <time>2025-06-17T19:17:37Z</time>
      </trkpt>
      <trkpt lat="47.65689" lon="-0.2135">
        <ele>35</ele>
        <time>2025-06-17T19:18:18Z</time>
      </trkpt>
      <trkpt lat="47.65683" lon="-0.21153">
        <ele>36</ele>
        <time>2025-06-17T19:18:42Z</time>
      </trkpt>
      <trkpt lat="47.65701" lon="-0.2093">
        <ele>34</ele>
        <time>2025-06-17T19:19:09Z</time>
      </trkpt>
      <trkpt lat="47.65776" lon="-0.20767">
        <ele>33</ele>
        <time>2025-06-17T19:19:32Z</time>
      </trkpt>
      <trkpt lat="47.65689" lon="-0.20458">
        <ele>37</ele>
        <time>2025-06-17T19:20:13Z</time>
      </trkpt>
      <trkpt lat="47.65602" lon="-0.20132">
        <ele>38</ele>
        <time>2025-06-17T19:20:55Z</time>
      </trkpt>
      <trkpt lat="47.6577" lon="-0.19557">
        <ele>39</ele>
        <time>2025-06-17T19:22:10Z</time>
      </trkpt>
      <trkpt lat="47.65903" lon="-0.18932">
        <ele>25.5</ele>
        <time>2025-06-17T19:23:28Z</time>
      </trkpt>
      <trkpt lat="47.65946" lon="-0.18756">
        <ele>26.2</ele>
      </trkpt>
      <trkpt lat="47.6599" lon="-0.18406">
        <ele>25</ele>
        <time>2025-06-17T19:24:33Z</time>
      </trkpt>
      <trkpt lat="47.66094" lon="-0.18145">
        <ele>25.4</ele>
      </trkpt>
      <trkpt lat="47.66255" lon="-0.17866">
        <ele>26</ele>
        <time>2025-06-17T19:25:53Z</time>
      </trkpt>
      <trkpt lat="47.66378" lon="-0.17724">
        <ele>26</ele>
      </trkpt>
      <trkpt lat="47.66429" lon="-0.17634">
        <ele>25</ele>
        <time>2025-06-17T19:26:35Z</time>
      </trkpt>
      <trkpt lat="47.66527" lon="-0.17454">
        <ele>25</ele>
      </trkpt>
      <trkpt lat="47.6662" lon="-0.17325">
        <ele>25</ele>
        <time>2025-06-17T19:27:25Z</time>
      </trkpt>
      <trkpt lat="47.66789" lon="-0.17149">
        <ele>26</ele>
      </trkpt>
      <trkpt lat="47.66932" lon="-0.17093">
        <ele>27</ele>
        <time>2025-06-17T19:28:27Z</time>
      </trkpt>
      <trkpt lat="47.67063" lon="-0.1711">
        <ele>25.3</ele>
      </trkpt>
      <trkpt lat="47.67244" lon="-0.17222">
        <ele>27</ele>
        <time>2025-06-17T19:29:25Z</time>
      </trkpt>
      <trkpt lat="47.67469" lon="-0.17265">
        <ele>27</ele>
        <time>2025-06-17T19:30:05Z</time>
      </trkpt>
      <trkpt lat="47.67595" lon="-0.1722">
        <ele>26</ele>
      </trkpt>
      <trkpt lat="47.67729" lon="-0.1711">
        <ele>26</ele>
        <time>2025-06-17T19:30:55Z</time>
      </trkpt>
      <trkpt lat="47.67863" lon="-0.17029">
        <ele>26.8</ele>
      </trkpt>
      <trkpt lat="47.67938" lon="-0.16958">
        <ele>26.6</ele>
        <time>2025-06-17T19:31:34Z</time>
      </trkpt>
      <trkpt lat="47.68078" lon="-0.16812">
        <ele>26.2</ele>
      </trkpt>
      <trkpt lat="47.68122" lon="-0.16779">
        <ele>25.6</ele>
        <time>2025-06-17T19:32:09Z</time>
      </trkpt>
      <trkpt lat="47.68161" lon="-0.1675">
        <ele>25.8</ele>
        <time>2025-06-17T19:32:24Z</time>
      </trkpt>
      <trkpt lat="47.68122" lon="-0.16638">
        <ele>25</ele>
        <time>2025-06-17T19:32:45Z</time>
      </trkpt>
      <trkpt lat="47.67966" lon="-0.16269">
        <ele>27</ele>
        <time>2025-06-17T19:33:37Z</time>
      </trkpt>
      <trkpt lat="47.67859" lon="-0.16084">
        <ele>26.1</ele>
        <time>2025-06-17T19:34:06Z</time>
      </trkpt>
      <trkpt lat="47.67683" lon="-0.1596">
        <ele>28</ele>
        <time>2025-06-17T19:34:43Z</time>
      </trkpt>
      <trkpt lat="47.67738" lon="-0.15852">
        <ele>27.6</ele>
      </trkpt>
      <trkpt lat="47.67737" lon="-0.15776">
        <ele>28.5</ele>
        <time>2025-06-17T19:35:06Z</time>
      </trkpt>
      <trkpt lat="47.67761" lon="-0.15619">
        <ele>29.6</ele>
      </trkpt>
      <trkpt lat="47.67764" lon="-0.15574">
        <ele>30</ele>
        <time>2025-06-17T19:35:31Z</time>
      </trkpt>
      <trkpt lat="47.67781" lon="-0.15385">
        <ele>31</ele>
        <time>2025-06-17T19:35:54Z</time>
      </trkpt>
      <trkpt lat="47.67816" lon="-0.15246">
        <ele>28</ele>
      </trkpt>
      <trkpt lat="47.67844" lon="-0.15029">
        <ele>26.9</ele>
        <time>2025-06-17T19:36:37Z</time>
      </trkpt>
      <trkpt lat="47.6788" lon="-0.14836">
        <ele>35</ele>
        <time>2025-06-17T19:37:02Z</time>
      </trkpt>
      <trkpt lat="47.6789" lon="-0.14829">
        <ele>28.3</ele>
      </trkpt>
      <trkpt lat="47.67984" lon="-0.14544">
        <ele>38</ele>
        <time>2025-06-17T19:37:42Z</time>
      </trkpt>
      <trkpt lat="47.6803" lon="-0.14312">
        <ele>40</ele>
        <time>2025-06-17T19:38:11Z</time>
      </trkpt>
      <trkpt lat="47.6807" lon="-0.14046">
        <ele>29</ele>
        <time>2025-06-17T19:38:43Z</time>
      </trkpt>
      <trkpt lat="47.68082" lon="-0.13887">
        <ele>31.4</ele>
      </trkpt>
      <trkpt lat="47.68039" lon="-0.13573">
        <ele>27.6</ele>
        <time>2025-06-17T19:39:40Z</time>
      </trkpt>
      <trkpt lat="47.67966" lon="-0.13119">
        <ele>27</ele>
        <time>2025-06-17T19:40:37Z</time>
      </trkpt>
      <trkpt lat="47.67903" lon="-0.12833">
        <ele>26.5</ele>
      </trkpt>
      <trkpt lat="47.67908" lon="-0.1275">
        <ele>26</ele>
        <time>2025-06-17T19:41:22Z</time>
      </trkpt>
      <trkpt lat="47.67931" lon="-0.12637">
        <ele>26</ele>
      </trkpt>
      <trkpt lat="47.67989" lon="-0.1257">
        <ele>27</ele>
        <time>2025-06-17T19:41:48Z</time>
      </trkpt>
      <trkpt lat="47.68067" lon="-0.12534">
        <ele>26</ele>
      </trkpt>
      <trkpt lat="47.68099" lon="-0.1249">
        <ele>26.2</ele>
      </trkpt>
      <trkpt lat="47.68107" lon="-0.12474">
        <ele>26.8</ele>
        <time>2025-06-17T19:42:11Z</time>
      </trkpt>
      <trkpt lat="47.68108" lon="-0.12448">
        <ele>26.9</ele>
      </trkpt>
      <trkpt lat="47.68041" lon="-0.12064">
        <ele>28</ele>
        <time>2025-06-17T19:43:01Z</time>
      </trkpt>
      <trkpt lat="47.68018" lon="-0.11984">
        <ele>26.7</ele>
      </trkpt>
      <trkpt lat="47.68024" lon="-0.11838">
        <ele>26.9</ele>
      </trkpt>
      <trkpt lat="47.68013" lon="-0.11755">
        <ele>27</ele>
        <time>2025-06-17T19:43:38Z</time>
      </trkpt>
      <trkpt lat="47.67943" lon="-0.11334">
        <ele>32</ele>
        <time>2025-06-17T19:44:30Z</time>
      </trkpt>
      <trkpt lat="47.67889" lon="-0.11172">
        <ele>27</ele>
      </trkpt>
      <trkpt lat="47.6788" lon="-0.10913">
        <ele>28</ele>
        <time>2025-06-17T19:45:22Z</time>
      </trkpt>
      <trkpt lat="47.67866" lon="-0.1088">
        <ele>27</ele>
      </trkpt>
      <trkpt lat="47.6784" lon="-0.10727">
        <ele>26.2</ele>
        <time>2025-06-17T19:45:45Z</time>
      </trkpt>
      <trkpt lat="47.67862" lon="-0.10536">
        <ele>27</ele>
      </trkpt>
      <trkpt lat="47.67859" lon="-0.10416">
        <ele>27.9</ele>
        <time>2025-06-17T19:46:23Z</time>
      </trkpt>
      <trkpt lat="47.67908" lon="-0.09969">
        <ele>29</ele>
        <time>2025-06-17T19:47:18Z</time>
      </trkpt>
      <trkpt lat="47.68093" lon="-0.0975">
        <ele>27.7</ele>
        <time>2025-06-17T19:48:03Z</time>
      </trkpt>
      <trkpt lat="47.68192" lon="-0.09368">
        <ele>27</ele>
        <time>2025-06-17T19:48:51Z</time>
      </trkpt>
      <trkpt lat="47.68298" lon="-0.09057">
        <ele>28</ele>
      </trkpt>
      <trkpt lat="47.68353" lon="-0.08856">
        <ele>29</ele>
      </trkpt>
      <trkpt lat="47.68386" lon="-0.08707">
        <ele>29.5</ele>
        <time>2025-06-17T19:50:14Z</time>
      </trkpt>
      <trkpt lat="47.68439" lon="-0.08304">
        <ele>29</ele>
        <time>2025-06-17T19:51:06Z</time>
      </trkpt>
      <trkpt lat="47.68531" lon="-0.08061">
        <ele>28.9</ele>
      </trkpt>
      <trkpt lat="47.68538" lon="-0.08064">
        <ele>28</ele>
        <time>2025-06-17T19:51:40Z</time>
      </trkpt>
      <trkpt lat="47.68579" lon="-0.07652">
        <ele>29</ele>
        <time>2025-06-17T19:52:30Z</time>
      </trkpt>
      <trkpt lat="47.68596" lon="-0.07542">
        <ele>29.3</ele>
      </trkpt>
      <trkpt lat="47.68804" lon="-0.07549">
        <ele>29</ele>
        <time>2025-06-17T19:53:12Z</time>
      </trkpt>
      <trkpt lat="47.69093" lon="-0.07575">
        <ele>32</ele>
        <time>2025-06-17T19:54:03Z</time>
      </trkpt>
      <trkpt lat="47.69174" lon="-0.07562">
        <ele>29</ele>
        <time>2025-06-17T19:54:26Z</time>
      </trkpt>
      <trkpt lat="47.69145" lon="-0.07225">
        <ele>29</ele>
        <time>2025-06-17T19:55:01Z</time>
      </trkpt>
      <trkpt lat="47.69237" lon="-0.0718">
        <ele>29</ele>
        <time>2025-06-17T19:55:26Z</time>
      </trkpt>
      <trkpt lat="47.69742" lon="-0.07007">
        <ele>30</ele>
        <time>2025-06-17T19:57:06Z</time>
      </trkpt>
      <trkpt lat="47.69688" lon="-0.06407">
        <ele>32</ele>
        <time>2025-06-17T19:58:19Z</time>
      </trkpt>
      <trkpt lat="47.6969" lon="-0.06297">
        <ele>30.2</ele>
      </trkpt>
      <trkpt lat="47.69856" lon="-0.05987">
        <ele>31</ele>
        <time>2025-06-17T19:59:18Z</time>
      </trkpt>
      <trkpt lat="47.70202" lon="-0.05384">
        <ele>31</ele>
      </trkpt>
      <trkpt lat="47.70268" lon="-0.05267">
        <ele>31.5</ele>
      </trkpt>
      <trkpt lat="47.70103" lon="-0.05144">
        <ele>32.2</ele>
      </trkpt>
      <trkpt lat="47.70229" lon="-0.04915">
        <ele>32</ele>
        <time>2025-06-17T20:01:01Z</time>
      </trkpt>
    </trkseg>
  </trk>
</gpx>